createdAt,value
2023-03-26T00:02:30.990Z,2.17
2023-03-26T00:05:34.234Z,1.23
2023-03-26T00:08:38.370Z,1.77
2023-03-26T00:11:42.497Z,1.05
2023-03-26T00:14:45.147Z,2.95
2023-03-26T00:17:48.101Z,2.15
2023-03-26T00:20:52.733Z,2.83
2023-03-26T00:24:04.857Z,1.50
2023-03-26T00:27:08.847Z,1.02
2023-03-26T00:30:12.525Z,1.50
2023-03-26T00:33:17.499Z,1.62
2023-03-26T00:36:20.675Z,1.50
2023-03-26T00:39:24.133Z,1.53
2023-03-26T00:42:27.601Z,1.40
2023-03-26T00:45:30.450Z,1.27
2023-03-26T00:48:44.672Z,1.83
2023-03-26T00:51:48.240Z,1.15
2023-03-26T00:54:52.330Z,1.47
2023-03-26T00:57:55.503Z,2.50
2023-03-26T01:01:01.016Z,1.73
2023-03-26T01:04:27.509Z,2.10
2023-03-26T01:07:31.579Z,1.25
2023-03-26T01:10:38.723Z,1.93
2023-03-26T01:13:51.290Z,1.00
2023-03-26T01:16:56.037Z,1.48
2023-03-26T01:20:13.215Z,2.35
2023-03-26T01:23:22.744Z,2.08
2023-03-26T01:26:43.095Z,1.97
2023-03-26T01:29:54.273Z,1.25
2023-03-26T01:33:21.558Z,0.62
2023-03-26T01:36:34.992Z,1.35
2023-03-26T01:39:53.925Z,2.03
2023-03-26T01:43:24.699Z,2.40
2023-03-26T01:46:27.874Z,3.33
2023-03-26T01:49:31.718Z,1.65
2023-03-26T01:52:35.054Z,2.35
2023-03-26T01:55:49.679Z,1.02
2023-03-26T01:58:59.801Z,1.50
2023-03-26T02:02:26.202Z,2.17
2023-03-26T02:05:34.234Z,2.00
2023-03-26T02:08:42.860Z,1.77
2023-03-26T02:11:46.852Z,1.87
2023-03-26T02:14:49.961Z,1.90
2023-03-26T02:17:54.155Z,2.33
2023-03-26T02:20:57.237Z,1.95
2023-03-26T02:24:03.350Z,3.08
2023-03-26T02:27:07.947Z,2.70
2023-03-26T02:30:14.993Z,1.80
2023-03-26T02:33:18.193Z,2.25
2023-03-26T02:36:25.120Z,2.05
2023-03-26T02:39:30.188Z,1.65
2023-03-26T02:42:33.333Z,1.42
2023-03-26T02:45:36.409Z,1.63
2023-03-26T02:48:41.574Z,1.58
2023-03-26T02:51:44.995Z,4.10
2023-03-26T02:54:48.195Z,1.55
2023-03-26T02:57:51.624Z,1.25
2023-03-26T03:00:57.717Z,2.40
2023-03-26T03:04:04.280Z,3.30
2023-03-26T03:07:07.785Z,2.08
2023-03-26T03:10:22.081Z,1.27
2023-03-26T03:13:27.690Z,3.20
2023-03-26T03:16:30.750Z,0.73
2023-03-26T03:19:33.689Z,1.92
2023-03-26T03:22:37.475Z,1.30
2023-03-26T03:25:41.203Z,2.30
2023-03-26T03:28:45.305Z,2.28
2023-03-26T03:31:49.353Z,3.00
2023-03-26T03:34:53.290Z,2.83
2023-03-26T03:37:57.610Z,0.80
2023-03-26T03:41:01.861Z,2.75
2023-03-26T03:44:04.914Z,1.95
2023-03-26T03:47:10.468Z,2.90
2023-03-26T03:50:13.316Z,2.65
2023-03-26T03:53:18.527Z,2.35
2023-03-26T03:56:24.231Z,3.37
2023-03-26T03:59:29.354Z,1.35
2023-03-26T04:02:35.063Z,2.40
2023-03-26T04:05:38.721Z,0.93
2023-03-26T04:08:41.520Z,2.72
2023-03-26T04:11:45.245Z,3.15
2023-03-26T04:14:48.848Z,2.50
2023-03-26T04:17:52.181Z,1.57
2023-03-26T04:20:55.873Z,1.77
2023-03-26T04:24:02.232Z,2.47
2023-03-26T04:27:12.701Z,1.67
2023-03-26T04:30:20.624Z,2.92
2023-03-26T04:33:25.004Z,1.83
2023-03-26T04:36:32.219Z,3.70
2023-03-26T04:39:36.287Z,3.10
2023-03-26T04:42:46.989Z,2.42
2023-03-26T04:45:50.329Z,2.72
2023-03-26T04:48:55.089Z,2.90
2023-03-26T04:51:57.916Z,4.25
2023-03-26T04:55:18.617Z,2.30
2023-03-26T04:58:32.823Z,2.42
2023-03-26T05:01:37.945Z,3.40
2023-03-26T05:04:43.810Z,1.57
2023-03-26T05:07:46.949Z,2.60
2023-03-26T05:10:50.321Z,2.58
2023-03-26T05:13:54.216Z,2.53
2023-03-26T05:16:57.069Z,2.53
2023-03-26T05:20:01.203Z,5.50
2023-03-26T05:23:04.483Z,2.45
2023-03-26T05:26:09.598Z,3.45
2023-03-26T05:29:17.784Z,3.03
2023-03-26T05:32:20.961Z,2.25
2023-03-26T05:35:25.750Z,3.33
2023-03-26T05:38:30.045Z,2.20
2023-03-26T05:41:32.754Z,1.70
2023-03-26T05:44:35.744Z,2.53
2023-03-26T05:47:39.221Z,2.53
2023-03-26T05:50:42.272Z,4.23
2023-03-26T05:53:45.342Z,3.08
2023-03-26T05:56:50.561Z,2.87
2023-03-26T06:00:05.970Z,3.03
2023-03-26T06:03:19.195Z,2.95
2023-03-26T06:06:23.925Z,2.73
2023-03-26T06:09:29.569Z,2.37
2023-03-26T06:12:32.749Z,2.20
2023-03-26T06:15:35.286Z,3.08
2023-03-26T06:18:39.324Z,2.08
2023-03-26T06:21:43.526Z,3.17
2023-03-26T06:24:46.446Z,1.85
2023-03-26T06:27:50.884Z,1.95
2023-03-26T06:30:54.991Z,4.90
2023-03-26T06:33:57.984Z,2.78
2023-03-26T06:37:00.973Z,5.23
2023-03-26T06:40:04.792Z,2.37
2023-03-26T06:43:10.821Z,4.75
2023-03-26T06:46:14.659Z,3.37
2023-03-26T06:49:18.825Z,3.65
2023-03-26T06:52:22.630Z,3.20
2023-03-26T06:55:25.969Z,1.92
2023-03-26T06:58:29.839Z,3.20
2023-03-26T07:01:40.900Z,2.70
2023-03-26T07:04:58.731Z,2.37
2023-03-26T07:08:16.093Z,1.80
2023-03-26T07:11:25.462Z,2.85
2023-03-26T07:14:30.589Z,3.17
2023-03-26T07:17:33.451Z,3.60
2023-03-26T07:20:36.646Z,3.15
2023-03-26T07:23:39.804Z,2.27
2023-03-26T07:27:07.748Z,4.05
2023-03-26T07:30:14.962Z,2.85
2023-03-26T07:33:43.208Z,3.42
2023-03-26T07:36:51.952Z,3.08
2023-03-26T07:40:03.576Z,2.93
2023-03-26T07:43:41.882Z,1.87
2023-03-26T07:46:47.840Z,3.80
2023-03-26T07:49:51.792Z,2.78
2023-03-26T07:52:55.675Z,1.48
2023-03-26T07:56:08.110Z,3.03
2023-03-26T07:59:43.931Z,2.47
2023-03-26T08:02:49.505Z,3.03
2023-03-26T08:06:07.031Z,3.08
2023-03-26T08:09:25.418Z,2.28
2023-03-26T08:12:38.908Z,2.63
2023-03-26T08:16:05.598Z,2.50
2023-03-26T08:19:49.268Z,1.70
2023-03-26T08:23:02.195Z,2.70
2023-03-26T08:26:19.798Z,3.85
2023-03-26T08:29:45.328Z,3.53
2023-03-26T08:32:59.803Z,4.72
2023-03-26T08:36:02.672Z,1.77
2023-03-26T08:39:05.973Z,3.35
2023-03-26T08:42:46.148Z,2.15
2023-03-26T08:46:10.414Z,2.97
2023-03-26T08:49:31.886Z,2.37
2023-03-26T08:53:03.292Z,2.42
2023-03-26T08:56:16.522Z,1.67
2023-03-26T08:59:53.534Z,2.08
2023-03-26T09:03:00.503Z,3.80
2023-03-26T09:06:09.468Z,2.87
2023-03-26T09:09:33.586Z,3.20
2023-03-26T09:12:59.326Z,3.15
2023-03-26T09:16:43.245Z,2.83
2023-03-26T09:19:59.225Z,1.93
2023-03-26T09:23:26.378Z,4.68
2023-03-26T09:26:38.304Z,6.20
2023-03-26T09:30:24.181Z,2.35
2023-03-26T09:33:59.430Z,2.80
2023-03-26T09:37:17.534Z,3.20
2023-03-26T09:40:23.057Z,3.12
2023-03-26T09:43:44.487Z,3.50
2023-03-26T09:47:19.794Z,3.08
2023-03-26T09:51:05.972Z,3.12
2023-03-26T09:54:21.107Z,3.87
2023-03-26T09:57:29.868Z,7.53
2023-03-26T10:00:48.611Z,3.67
2023-03-26T10:04:26.896Z,2.40
2023-03-26T10:07:47.953Z,3.37
2023-03-26T10:10:58.438Z,2.57
2023-03-26T10:14:16.212Z,6.28
2023-03-26T10:18:00.973Z,3.28
2023-03-26T10:21:38.013Z,5.28
2023-03-26T10:24:59.070Z,3.90
2023-03-26T10:28:13.757Z,3.53
2023-03-26T10:31:19.363Z,2.62
2023-03-26T10:34:54.715Z,2.22
2023-03-26T10:38:23.313Z,2.30
2023-03-26T10:41:38.098Z,3.37
2023-03-26T10:45:18.206Z,3.23
2023-03-26T10:48:43.135Z,3.28
2023-03-26T10:51:50.438Z,4.97
2023-03-26T10:54:59.836Z,2.58
2023-03-26T10:58:25.679Z,3.00
2023-03-26T11:01:50.036Z,3.60
2023-03-26T11:05:13.824Z,2.78
2023-03-26T11:08:31.647Z,4.28
2023-03-26T11:11:45.299Z,7.70
2023-03-26T11:15:03.760Z,2.62
2023-03-26T11:18:46.009Z,9.07
2023-03-26T11:21:51.446Z,5.57
2023-03-26T11:24:56.482Z,4.80
2023-03-26T11:28:06.261Z,3.35
2023-03-26T11:31:32.288Z,2.87
2023-03-26T11:34:58.417Z,2.93
2023-03-26T11:38:07.546Z,3.58
2023-03-26T11:41:22.538Z,2.92
2023-03-26T11:44:29.863Z,4.40
2023-03-26T11:47:42.688Z,3.83
2023-03-26T11:50:52.799Z,2.77
2023-03-26T11:53:57.893Z,2.72
2023-03-26T11:57:06.968Z,3.55
2023-03-26T12:00:18.231Z,2.60
2023-03-26T12:03:21.609Z,3.78
2023-03-26T12:06:30.085Z,2.73
2023-03-26T12:09:33.013Z,2.55
2023-03-26T12:12:41.709Z,3.75
2023-03-26T12:15:44.634Z,3.40
2023-03-26T12:19:08.240Z,2.30
2023-03-26T12:22:32.930Z,2.03
2023-03-26T12:25:39.193Z,2.80
2023-03-26T12:28:47.744Z,4.45
2023-03-26T12:32:04.784Z,4.00
2023-03-26T12:35:18.732Z,2.15
2023-03-26T12:38:35.442Z,3.87
2023-03-26T12:43:40.480Z,2.12
2023-03-26T12:45:04.083Z,3.33
2023-03-26T12:48:07.480Z,2.55
2023-03-26T12:51:38.935Z,3.17
2023-03-26T12:55:00.225Z,3.03
2023-03-26T12:58:41.151Z,2.72
2023-03-26T13:01:59.655Z,3.25
2023-03-26T13:05:40.457Z,3.30
2023-03-26T13:08:49.378Z,2.60
2023-03-26T13:12:43.033Z,2.33
2023-03-26T13:15:52.557Z,2.37
2023-03-26T13:19:05.086Z,2.67
2023-03-26T13:22:12.411Z,2.97
2023-03-26T13:25:35.324Z,2.40
2023-03-26T13:28:53.674Z,2.73
2023-03-26T13:32:11.925Z,3.00
2023-03-26T13:35:39.972Z,3.08
2023-03-26T13:39:03.544Z,2.80
2023-03-26T13:42:26.675Z,2.60
2023-03-26T13:45:38.138Z,1.37
2023-03-26T13:49:01.837Z,2.25
2023-03-26T13:52:19.240Z,2.37
2023-03-26T13:55:28.276Z,2.20
2023-03-26T13:58:50.778Z,3.58
2023-03-26T14:01:58.223Z,1.93
2023-03-26T14:05:10.167Z,1.85
2023-03-26T14:08:20.841Z,2.33
2023-03-26T14:11:43.381Z,3.00
2023-03-26T14:14:52.379Z,2.83
2023-03-26T14:18:10.776Z,3.00
2023-03-26T14:21:49.356Z,2.65
2023-03-26T14:25:27.683Z,2.10
2023-03-26T14:28:54.877Z,2.17
2023-03-26T14:32:04.255Z,1.30
2023-03-26T14:35:14.447Z,0.60
2023-03-26T14:38:49.357Z,1.62
2023-03-26T14:41:54.121Z,1.62
2023-03-26T14:45:09.722Z,2.20
2023-03-26T14:48:32.060Z,2.03
2023-03-26T14:51:56.737Z,1.37
2023-03-26T14:55:01.800Z,1.55
2023-03-26T14:58:23.244Z,1.42
2023-03-26T15:01:27.631Z,2.17
2023-03-26T15:04:53.935Z,1.67
2023-03-26T15:08:04.982Z,2.50
2023-03-26T15:11:45.592Z,2.97
2023-03-26T15:14:54.089Z,2.12
2023-03-26T15:18:35.100Z,2.33
2023-03-26T15:21:51.172Z,1.75
2023-03-26T15:25:16.115Z,2.37
2023-03-26T15:28:59.906Z,2.15
2023-03-26T15:32:33.618Z,1.92
2023-03-26T15:35:42.141Z,1.50
2023-03-26T15:39:18.427Z,2.90
2023-03-26T15:42:49.481Z,2.17
2023-03-26T15:46:22.372Z,2.12
2023-03-26T15:49:40.170Z,1.70
2023-03-26T15:52:49.051Z,29.50
2023-03-26T15:56:16.213Z,2.87
2023-03-26T15:59:29.494Z,2.50
2023-03-26T16:02:36.411Z,3.03
2023-03-26T16:06:14.151Z,2.42
2023-03-26T16:09:27.384Z,4.35
2023-03-26T16:12:37.436Z,3.65
2023-03-26T16:15:42.803Z,3.97
2023-03-26T16:18:51.035Z,3.08
2023-03-26T16:22:04.381Z,3.22
2023-03-26T16:25:27.269Z,4.40
2023-03-26T16:28:33.601Z,2.22
2023-03-26T16:31:39.472Z,3.10
2023-03-26T16:34:52.986Z,3.25
2023-03-26T16:38:18.502Z,4.28
2023-03-26T16:41:26.763Z,9.35
2023-03-26T16:44:44.130Z,30.23
2023-03-26T16:47:54.276Z,13.83
2023-03-26T16:51:06.282Z,5.70
2023-03-26T16:54:33.448Z,4.68
2023-03-26T16:57:42.344Z,4.78
2023-03-26T17:01:07.634Z,5.65
2023-03-26T17:04:23.577Z,3.73
2023-03-26T17:07:39.444Z,4.50
2023-03-26T17:11:36.231Z,5.65
2023-03-26T17:15:18.618Z,6.07
2023-03-26T17:18:47.040Z,5.12
2023-03-26T17:22:19.114Z,4.57
2023-03-26T17:25:35.727Z,5.07
2023-03-26T17:29:06.863Z,5.85
2023-03-26T17:32:12.840Z,5.15
2023-03-26T17:35:16.183Z,6.82
2023-03-26T17:38:25.473Z,10.53
2023-03-26T17:41:55.471Z,7.18
2023-03-26T17:45:01.386Z,6.03
2023-03-26T17:48:10.795Z,5.78
2023-03-26T17:51:22.222Z,5.57
2023-03-26T17:54:44.433Z,5.57
2023-03-26T17:57:51.993Z,5.28
2023-03-26T18:01:08.257Z,7.00
2023-03-26T18:04:15.789Z,9.27
2023-03-26T18:07:52.299Z,7.50
2023-03-26T18:11:17.079Z,6.77
2023-03-26T18:14:32.006Z,5.65
2023-03-26T18:17:46.307Z,6.40
2023-03-26T18:20:51.025Z,7.72
2023-03-26T18:23:53.985Z,8.68
2023-03-26T18:27:06.381Z,11.57
2023-03-26T18:30:22.928Z,11.73
2023-03-26T18:33:26.042Z,11.80
2023-03-26T18:36:31.022Z,10.77
2023-03-26T18:39:33.501Z,9.07
2023-03-26T18:42:37.433Z,9.57
2023-03-26T18:45:41.405Z,10.65
2023-03-26T18:48:46.336Z,12.07
2023-03-26T18:51:57.489Z,15.35
2023-03-26T18:55:02.164Z,15.68
2023-03-26T18:58:22.225Z,12.33
2023-03-26T19:01:30.697Z,9.02
2023-03-26T19:04:34.985Z,8.02
2023-03-26T19:07:39.199Z,8.57
2023-03-26T19:10:42.833Z,6.70
2023-03-26T19:13:51.142Z,7.40
2023-03-26T19:16:59.343Z,8.18
2023-03-26T19:20:04.294Z,7.47
2023-03-26T19:23:09.142Z,7.28
2023-03-26T19:26:12.560Z,5.07
2023-03-26T19:29:19.726Z,5.97
2023-03-26T19:32:32.484Z,9.60
2023-03-26T19:35:39.636Z,7.85
2023-03-26T19:38:52.056Z,9.88
2023-03-26T19:41:54.906Z,10.15
2023-03-26T19:45:05.701Z,12.80
2023-03-26T19:48:15.533Z,15.10
2023-03-26T19:51:30.892Z,21.90
2023-03-26T19:55:00.132Z,20.83
2023-03-26T19:58:04.331Z,11.10
2023-03-26T20:01:28.665Z,21.53
2023-03-26T20:04:32.988Z,12.23
2023-03-26T20:07:39.397Z,12.15
2023-03-26T20:10:43.250Z,11.45
2023-03-26T20:13:46.458Z,31.00
2023-03-26T20:16:49.784Z,28.90
2023-03-26T20:19:54.306Z,29.73
2023-03-26T20:22:57.634Z,14.35
2023-03-26T20:26:01.271Z,18.87
2023-03-26T20:29:04.838Z,27.45
2023-03-26T20:32:23.671Z,24.00
2023-03-26T20:35:35.774Z,9.18
2023-03-26T20:38:43.395Z,5.50
2023-03-26T20:41:48.729Z,7.82
2023-03-26T20:44:51.370Z,7.68
2023-03-26T20:47:54.716Z,4.57
2023-03-26T20:50:57.417Z,5.57
2023-03-26T20:54:00.691Z,4.62
2023-03-26T20:57:03.440Z,4.68
2023-03-26T21:00:22.418Z,5.20
2023-03-26T21:03:25.376Z,4.57
2023-03-26T21:06:28.234Z,7.22
2023-03-26T21:09:35.326Z,5.93
2023-03-26T21:12:47.871Z,7.43
2023-03-26T21:15:50.811Z,7.60
2023-03-26T21:18:54.305Z,6.30
2023-03-26T21:22:15.620Z,7.15
2023-03-26T21:25:24.339Z,6.62
2023-03-26T21:28:42.221Z,6.25
2023-03-26T21:31:46.675Z,6.90
2023-03-26T21:34:58.491Z,5.33
2023-03-26T21:38:04.748Z,7.78
2023-03-26T21:41:07.738Z,7.57
2023-03-26T21:44:10.917Z,6.12
2023-03-26T21:47:14.114Z,6.10
2023-03-26T21:50:21.716Z,6.37
2023-03-26T21:53:24.542Z,6.37
2023-03-26T21:56:34.764Z,6.57
2023-03-26T22:00:18.194Z,5.75
2023-03-26T22:03:21.210Z,7.28
2023-03-26T22:06:32.382Z,6.30
2023-03-26T22:09:36.448Z,6.62
2023-03-26T22:12:39.616Z,6.25
2023-03-26T22:15:43.362Z,6.28
2023-03-26T22:18:45.955Z,6.43
2023-03-26T22:21:50.978Z,5.17
2023-03-26T22:24:53.732Z,5.60
2023-03-26T22:27:57.569Z,6.18
2023-03-26T22:31:07.205Z,6.32
2023-03-26T22:34:10.162Z,6.72
2023-03-26T22:37:13.551Z,5.90
2023-03-26T22:40:17.970Z,5.87
2023-03-26T22:43:20.553Z,8.90
2023-03-26T22:46:24.219Z,6.75
2023-03-26T22:49:27.457Z,7.75
2023-03-26T22:52:30.751Z,7.30
2023-03-26T22:55:33.581Z,8.02
2023-03-26T22:58:38.004Z,7.62
2023-03-26T23:01:40.835Z,7.50
2023-03-26T23:04:44.322Z,9.00
2023-03-26T23:07:47.354Z,6.67
2023-03-26T23:10:52.140Z,6.78
2023-03-26T23:13:54.701Z,6.37
2023-03-26T23:16:57.600Z,6.85
2023-03-26T23:20:00.710Z,6.97
2023-03-26T23:23:03.706Z,6.67
2023-03-26T23:26:06.973Z,8.10
2023-03-26T23:29:10.048Z,6.53
2023-03-26T23:32:23.368Z,7.90
2023-03-26T23:35:27.704Z,6.37
2023-03-26T23:38:43.083Z,8.37
2023-03-26T23:41:46.588Z,11.82
2023-03-26T23:44:49.387Z,7.50
2023-03-26T23:47:52.441Z,6.82
2023-03-26T23:51:03.481Z,8.65
2023-03-26T23:54:08.704Z,8.50
2023-03-26T23:57:11.485Z,8.13
